sensor_id;sensor_type;location;lat;lon;timestamp;P1;durP1;ratioP1;P2;durP2;ratioP2
60844;SDS011;47984;51.250;6.712;2022-07-24T00:00:37;4.50;;;4.10;;
60844;SDS011;47984;51.250;6.712;2022-07-24T00:03:08;3.85;;;3.53;;
60844;SDS011;47984;51.250;6.712;2022-07-24T00:05:35;4.50;;;4.10;;
60844;SDS011;47984;51.250;6.712;2022-07-24T00:08:02;4.53;;;3.75;;
60844;SDS011;47984;51.250;6.712;2022-07-24T00:10:30;4.15;;;3.78;;
60844;SDS011;47984;51.250;6.712;2022-07-24T00:12:57;4.15;;;3.78;;
60844;SDS011;47984;51.250;6.712;2022-07-24T00:15:25;4.20;;;3.80;;
60844;SDS011;47984;51.250;6.712;2022-07-24T00:17:52;5.03;;;4.00;;
60844;SDS011;47984;51.250;6.712;2022-07-24T00:20:19;4.55;;;4.10;;
60844;SDS011;47984;51.250;6.712;2022-07-24T00:22:47;4.53;;;4.13;;
60844;SDS011;47984;51.250;6.712;2022-07-24T00:25:15;4.13;;;3.72;;
60844;SDS011;47984;51.250;6.712;2022-07-24T00:27:42;4.80;;;3.42;;
60844;SDS011;47984;51.250;6.712;2022-07-24T00:30:17;3.92;;;3.60;;
60844;SDS011;47984;51.250;6.712;2022-07-24T00:32:45;5.60;;;4.03;;
60844;SDS011;47984;51.250;6.712;2022-07-24T00:35:12;6.90;;;3.80;;
60844;SDS011;47984;51.250;6.712;2022-07-24T00:37:39;4.13;;;3.83;;
60844;SDS011;47984;51.250;6.712;2022-07-24T00:40:07;5.95;;;3.70;;
60844;SDS011;47984;51.250;6.712;2022-07-24T00:42:34;4.03;;;3.58;;
60844;SDS011;47984;51.250;6.712;2022-07-24T00:45:01;4.05;;;3.75;;
60844;SDS011;47984;51.250;6.712;2022-07-24T00:47:48;3.88;;;3.45;;
60844;SDS011;47984;51.250;6.712;2022-07-24T00:50:15;5.72;;;3.60;;
60844;SDS011;47984;51.250;6.712;2022-07-24T00:52:46;5.63;;;4.22;;
60844;SDS011;47984;51.250;6.712;2022-07-24T00:55:14;4.53;;;4.18;;
60844;SDS011;47984;51.250;6.712;2022-07-24T00:57:41;5.53;;;4.22;;
60844;SDS011;47984;51.250;6.712;2022-07-24T01:00:12;5.88;;;3.75;;
60844;SDS011;47984;51.250;6.712;2022-07-24T01:02:40;5.40;;;4.30;;
60844;SDS011;47984;51.250;6.712;2022-07-24T01:05:09;4.05;;;3.72;;
60844;SDS011;47984;51.250;6.712;2022-07-24T01:07:37;6.60;;;4.28;;
60844;SDS011;47984;51.250;6.712;2022-07-24T01:10:05;4.20;;;3.90;;
60844;SDS011;47984;51.250;6.712;2022-07-24T01:12:34;4.30;;;3.78;;
60844;SDS011;47984;51.250;6.712;2022-07-24T01:15:06;4.47;;;4.03;;
60844;SDS011;47984;51.250;6.712;2022-07-24T01:17:36;4.88;;;4.10;;
60844;SDS011;47984;51.250;6.712;2022-07-24T01:20:07;7.43;;;4.18;;
60844;SDS011;47984;51.250;6.712;2022-07-24T01:22:36;4.68;;;4.07;;
60844;SDS011;47984;51.250;6.712;2022-07-24T01:25:04;4.88;;;4.47;;
60844;SDS011;47984;51.250;6.712;2022-07-24T01:27:32;6.35;;;4.65;;
60844;SDS011;47984;51.250;6.712;2022-07-24T01:29:59;4.72;;;4.25;;
60844;SDS011;47984;51.250;6.712;2022-07-24T01:32:26;5.53;;;4.28;;
60844;SDS011;47984;51.250;6.712;2022-07-24T01:34:54;4.75;;;4.22;;
60844;SDS011;47984;51.250;6.712;2022-07-24T01:37:21;4.38;;;3.97;;
60844;SDS011;47984;51.250;6.712;2022-07-24T01:39:48;5.47;;;4.55;;
60844;SDS011;47984;51.250;6.712;2022-07-24T01:42:15;4.85;;;4.43;;
60844;SDS011;47984;51.250;6.712;2022-07-24T01:44:43;5.47;;;3.97;;
60844;SDS011;47984;51.250;6.712;2022-07-24T01:47:10;4.10;;;3.80;;
60844;SDS011;47984;51.250;6.712;2022-07-24T01:49:37;5.00;;;4.03;;
60844;SDS011;47984;51.250;6.712;2022-07-24T01:52:04;4.53;;;4.13;;
60844;SDS011;47984;51.250;6.712;2022-07-24T01:54:31;4.68;;;4.28;;
60844;SDS011;47984;51.250;6.712;2022-07-24T01:56:59;4.65;;;4.25;;
60844;SDS011;47984;51.250;6.712;2022-07-24T01:59:26;4.88;;;4.38;;
60844;SDS011;47984;51.250;6.712;2022-07-24T02:01:53;4.88;;;4.47;;
60844;SDS011;47984;51.250;6.712;2022-07-24T02:04:21;4.85;;;4.45;;
60844;SDS011;47984;51.250;6.712;2022-07-24T02:06:48;4.72;;;4.32;;
60844;SDS011;47984;51.250;6.712;2022-07-24T02:09:15;4.65;;;4.28;;
60844;SDS011;47984;51.250;6.712;2022-07-24T02:11:46;4.60;;;4.20;;
60844;SDS011;47984;51.250;6.712;2022-07-24T02:14:13;4.63;;;4.22;;
60844;SDS011;47984;51.250;6.712;2022-07-24T02:16:40;4.55;;;4.15;;
60844;SDS011;47984;51.250;6.712;2022-07-24T02:19:08;4.30;;;3.97;;
60844;SDS011;47984;51.250;6.712;2022-07-24T02:21:35;4.95;;;4.47;;
60844;SDS011;47984;51.250;6.712;2022-07-24T02:24:02;4.70;;;4.30;;
60844;SDS011;47984;51.250;6.712;2022-07-24T02:26:30;5.00;;;4.60;;
60844;SDS011;47984;51.250;6.712;2022-07-24T02:28:58;5.35;;;3.92;;
60844;SDS011;47984;51.250;6.712;2022-07-24T02:31:25;5.55;;;4.10;;
60844;SDS011;47984;51.250;6.712;2022-07-24T02:33:53;5.13;;;4.63;;
60844;SDS011;47984;51.250;6.712;2022-07-24T02:36:20;4.72;;;3.88;;
60844;SDS011;47984;51.250;6.712;2022-07-24T02:38:47;5.38;;;4.68;;
60844;SDS011;47984;51.250;6.712;2022-07-24T02:41:15;5.00;;;4.60;;
60844;SDS011;47984;51.250;6.712;2022-07-24T02:43:42;5.00;;;4.47;;
60844;SDS011;47984;51.250;6.712;2022-07-24T02:46:09;5.60;;;4.63;;
60844;SDS011;47984;51.250;6.712;2022-07-24T02:48:36;5.35;;;4.80;;
60844;SDS011;47984;51.250;6.712;2022-07-24T02:51:03;5.15;;;4.65;;
60844;SDS011;47984;51.250;6.712;2022-07-24T02:53:31;4.78;;;4.38;;
60844;SDS011;47984;51.250;6.712;2022-07-24T02:55:58;4.95;;;4.47;;
60844;SDS011;47984;51.250;6.712;2022-07-24T02:58:25;5.30;;;4.80;;
60844;SDS011;47984;51.250;6.712;2022-07-24T03:00:52;6.07;;;4.65;;
60844;SDS011;47984;51.250;6.712;2022-07-24T03:03:20;7.72;;;4.53;;
60844;SDS011;47984;51.250;6.712;2022-07-24T03:05:47;5.50;;;4.60;;
60844;SDS011;47984;51.250;6.712;2022-07-24T03:08:14;6.22;;;4.57;;
60844;SDS011;47984;51.250;6.712;2022-07-24T03:10:41;5.35;;;4.55;;
60844;SDS011;47984;51.250;6.712;2022-07-24T03:13:09;5.75;;;4.82;;
60844;SDS011;47984;51.250;6.712;2022-07-24T03:15:36;5.05;;;4.53;;
60844;SDS011;47984;51.250;6.712;2022-07-24T03:18:04;6.28;;;4.80;;
60844;SDS011;47984;51.250;6.712;2022-07-24T03:20:48;6.22;;;4.72;;
60844;SDS011;47984;51.250;6.712;2022-07-24T03:23:15;5.60;;;5.10;;
60844;SDS011;47984;51.250;6.712;2022-07-24T03:25:42;4.78;;;4.05;;
60844;SDS011;47984;51.250;6.712;2022-07-24T03:28:09;7.15;;;5.15;;
60844;SDS011;47984;51.250;6.712;2022-07-24T03:30:36;5.18;;;4.68;;
60844;SDS011;47984;51.250;6.712;2022-07-24T03:33:04;5.07;;;4.68;;
60844;SDS011;47984;51.250;6.712;2022-07-24T03:35:31;5.40;;;4.90;;
60844;SDS011;47984;51.250;6.712;2022-07-24T03:37:58;4.90;;;4.50;;
60844;SDS011;47984;51.250;6.712;2022-07-24T03:40:25;6.50;;;4.57;;
60844;SDS011;47984;51.250;6.712;2022-07-24T03:42:52;6.32;;;4.75;;
60844;SDS011;47984;51.250;6.712;2022-07-24T03:45:19;5.47;;;4.97;;
60844;SDS011;47984;51.250;6.712;2022-07-24T03:47:47;6.60;;;4.55;;
60844;SDS011;47984;51.250;6.712;2022-07-24T03:50:14;5.55;;;5.05;;
60844;SDS011;47984;51.250;6.712;2022-07-24T03:52:47;5.00;;;4.55;;
60844;SDS011;47984;51.250;6.712;2022-07-24T03:55:16;6.80;;;4.75;;
60844;SDS011;47984;51.250;6.712;2022-07-24T03:57:44;5.00;;;4.60;;
60844;SDS011;47984;51.250;6.712;2022-07-24T04:00:11;5.13;;;4.63;;
60844;SDS011;47984;51.250;6.712;2022-07-24T04:02:39;5.65;;;4.43;;
60844;SDS011;47984;51.250;6.712;2022-07-24T04:05:07;5.38;;;4.85;;
60844;SDS011;47984;51.250;6.712;2022-07-24T04:07:39;5.90;;;5.22;;
60844;SDS011;47984;51.250;6.712;2022-07-24T04:10:06;7.15;;;5.18;;
60844;SDS011;47984;51.250;6.712;2022-07-24T04:12:34;5.25;;;4.75;;
60844;SDS011;47984;51.250;6.712;2022-07-24T04:15:02;5.45;;;4.97;;
60844;SDS011;47984;51.250;6.712;2022-07-24T04:17:29;4.85;;;4.45;;
60844;SDS011;47984;51.250;6.712;2022-07-24T04:19:56;5.47;;;5.03;;
60844;SDS011;47984;51.250;6.712;2022-07-24T04:22:23;5.68;;;5.18;;
60844;SDS011;47984;51.250;6.712;2022-07-24T04:24:50;5.47;;;4.25;;
60844;SDS011;47984;51.250;6.712;2022-07-24T04:27:18;4.68;;;4.28;;
60844;SDS011;47984;51.250;6.712;2022-07-24T04:29:45;4.97;;;4.50;;
60844;SDS011;47984;51.250;6.712;2022-07-24T04:32:15;5.20;;;4.70;;
60844;SDS011;47984;51.250;6.712;2022-07-24T04:34:42;5.07;;;4.63;;
60844;SDS011;47984;51.250;6.712;2022-07-24T04:37:09;5.07;;;4.57;;
60844;SDS011;47984;51.250;6.712;2022-07-24T04:39:38;5.13;;;4.45;;
60844;SDS011;47984;51.250;6.712;2022-07-24T04:42:05;5.13;;;4.63;;
60844;SDS011;47984;51.250;6.712;2022-07-24T04:44:32;5.32;;;4.82;;
60844;SDS011;47984;51.250;6.712;2022-07-24T04:47:00;5.72;;;5.22;;
60844;SDS011;47984;51.250;6.712;2022-07-24T04:49:27;5.68;;;5.18;;
60844;SDS011;47984;51.250;6.712;2022-07-24T04:51:54;6.40;;;4.68;;
60844;SDS011;47984;51.250;6.712;2022-07-24T04:54:21;5.18;;;4.70;;
60844;SDS011;47984;51.250;6.712;2022-07-24T04:56:49;5.15;;;4.70;;
60844;SDS011;47984;51.250;6.712;2022-07-24T04:59:16;4.63;;;4.22;;
60844;SDS011;47984;51.250;6.712;2022-07-24T05:01:43;6.50;;;4.68;;
60844;SDS011;47984;51.250;6.712;2022-07-24T05:04:14;5.32;;;4.55;;
60844;SDS011;47984;51.250;6.712;2022-07-24T05:06:41;4.65;;;4.28;;
60844;SDS011;47984;51.250;6.712;2022-07-24T05:09:08;4.75;;;4.35;;
60844;SDS011;47984;51.250;6.712;2022-07-24T05:11:35;5.13;;;4.40;;
60844;SDS011;47984;51.250;6.712;2022-07-24T05:14:02;4.47;;;4.10;;
60844;SDS011;47984;51.250;6.712;2022-07-24T05:16:29;7.03;;;4.47;;
60844;SDS011;47984;51.250;6.712;2022-07-24T05:18:57;5.13;;;4.28;;
60844;SDS011;47984;51.250;6.712;2022-07-24T05:21:24;4.57;;;4.15;;
60844;SDS011;47984;51.250;6.712;2022-07-24T05:23:53;5.85;;;4.78;;
60844;SDS011;47984;51.250;6.712;2022-07-24T05:26:20;4.22;;;3.88;;
60844;SDS011;47984;51.250;6.712;2022-07-24T05:28:48;5.40;;;4.50;;
60844;SDS011;47984;51.250;6.712;2022-07-24T05:31:16;4.95;;;4.55;;
60844;SDS011;47984;51.250;6.712;2022-07-24T05:33:43;4.50;;;4.07;;
60844;SDS011;47984;51.250;6.712;2022-07-24T05:36:10;5.25;;;4.75;;
60844;SDS011;47984;51.250;6.712;2022-07-24T05:38:38;5.10;;;4.60;;
60844;SDS011;47984;51.250;6.712;2022-07-24T05:41:06;4.97;;;4.53;;
60844;SDS011;47984;51.250;6.712;2022-07-24T05:43:34;5.30;;;4.80;;
60844;SDS011;47984;51.250;6.712;2022-07-24T05:46:01;5.10;;;4.55;;
60844;SDS011;47984;51.250;6.712;2022-07-24T05:48:29;5.30;;;4.80;;
60844;SDS011;47984;51.250;6.712;2022-07-24T05:50:57;5.93;;;5.35;;
60844;SDS011;47984;51.250;6.712;2022-07-24T05:53:24;5.60;;;5.10;;
60844;SDS011;47984;51.250;6.712;2022-07-24T05:55:51;4.97;;;4.57;;
60844;SDS011;47984;51.250;6.712;2022-07-24T05:58:18;5.63;;;5.07;;
60844;SDS011;47984;51.250;6.712;2022-07-24T06:00:46;5.72;;;5.13;;
60844;SDS011;47984;51.250;6.712;2022-07-24T06:03:13;5.55;;;5.05;;
60844;SDS011;47984;51.250;6.712;2022-07-24T06:05:40;5.25;;;4.85;;
60844;SDS011;47984;51.250;6.712;2022-07-24T06:08:07;4.80;;;4.40;;
60844;SDS011;47984;51.250;6.712;2022-07-24T06:10:35;5.22;;;4.65;;
60844;SDS011;47984;51.250;6.712;2022-07-24T06:13:02;6.28;;;4.68;;
60844;SDS011;47984;51.250;6.712;2022-07-24T06:15:30;7.57;;;4.97;;
60844;SDS011;47984;51.250;6.712;2022-07-24T06:18:04;6.03;;;4.78;;
60844;SDS011;47984;51.250;6.712;2022-07-24T06:20:31;5.50;;;4.93;;
60844;SDS011;47984;51.250;6.712;2022-07-24T06:22:58;7.13;;;5.30;;
60844;SDS011;47984;51.250;6.712;2022-07-24T06:25:25;7.03;;;4.80;;
60844;SDS011;47984;51.250;6.712;2022-07-24T06:27:52;4.70;;;4.30;;
60844;SDS011;47984;51.250;6.712;2022-07-24T06:30:24;5.22;;;4.65;;
60844;SDS011;47984;51.250;6.712;2022-07-24T06:32:55;5.68;;;5.18;;
60844;SDS011;47984;51.250;6.712;2022-07-24T06:35:25;5.13;;;4.65;;
60844;SDS011;47984;51.250;6.712;2022-07-24T06:37:54;5.65;;;4.70;;
60844;SDS011;47984;51.250;6.712;2022-07-24T06:40:22;6.20;;;4.88;;
60844;SDS011;47984;51.250;6.712;2022-07-24T06:42:49;4.88;;;4.35;;
60844;SDS011;47984;51.250;6.712;2022-07-24T06:45:17;5.72;;;4.25;;
60844;SDS011;47984;51.250;6.712;2022-07-24T06:47:44;7.13;;;5.68;;
60844;SDS011;47984;51.250;6.712;2022-07-24T06:50:12;6.82;;;4.50;;
60844;SDS011;47984;51.250;6.712;2022-07-24T06:52:40;5.15;;;4.65;;
60844;SDS011;47984;51.250;6.712;2022-07-24T06:55:09;4.22;;;3.90;;
60844;SDS011;47984;51.250;6.712;2022-07-24T06:57:36;5.63;;;4.60;;
60844;SDS011;47984;51.250;6.712;2022-07-24T07:00:08;4.57;;;4.18;;
60844;SDS011;47984;51.250;6.712;2022-07-24T07:02:37;5.55;;;4.80;;
60844;SDS011;47984;51.250;6.712;2022-07-24T07:05:05;6.50;;;3.80;;
60844;SDS011;47984;51.250;6.712;2022-07-24T07:07:37;4.40;;;4.00;;
60844;SDS011;47984;51.250;6.712;2022-07-24T07:10:05;5.50;;;3.50;;
60844;SDS011;47984;51.250;6.712;2022-07-24T07:12:37;4.90;;;4.18;;
60844;SDS011;47984;51.250;6.712;2022-07-24T07:15:07;5.70;;;4.18;;
60844;SDS011;47984;51.250;6.712;2022-07-24T07:17:37;4.68;;;4.20;;
60844;SDS011;47984;51.250;6.712;2022-07-24T07:20:08;5.63;;;3.80;;
60844;SDS011;47984;51.250;6.712;2022-07-24T07:22:38;4.63;;;4.18;;
60844;SDS011;47984;51.250;6.712;2022-07-24T07:25:06;4.53;;;4.13;;
60844;SDS011;47984;51.250;6.712;2022-07-24T07:27:39;4.75;;;4.18;;
60844;SDS011;47984;51.250;6.712;2022-07-24T07:30:06;5.70;;;4.93;;
60844;SDS011;47984;51.250;6.712;2022-07-24T07:32:35;5.03;;;4.05;;
60844;SDS011;47984;51.250;6.712;2022-07-24T07:35:03;6.10;;;4.50;;
60844;SDS011;47984;51.250;6.712;2022-07-24T07:37:46;6.22;;;4.25;;
60844;SDS011;47984;51.250;6.712;2022-07-24T07:40:13;4.35;;;3.97;;
60844;SDS011;47984;51.250;6.712;2022-07-24T07:42:40;6.15;;;4.45;;
60844;SDS011;47984;51.250;6.712;2022-07-24T07:45:07;6.47;;;4.38;;
60844;SDS011;47984;51.250;6.712;2022-07-24T07:47:35;5.15;;;4.47;;
60844;SDS011;47984;51.250;6.712;2022-07-24T07:50:03;8.82;;;5.57;;
60844;SDS011;47984;51.250;6.712;2022-07-24T07:52:31;8.07;;;5.00;;
60844;SDS011;47984;51.250;6.712;2022-07-24T07:54:59;5.50;;;4.95;;
60844;SDS011;47984;51.250;6.712;2022-07-24T07:57:26;5.45;;;4.95;;
60844;SDS011;47984;51.250;6.712;2022-07-24T08:00:13;4.50;;;4.10;;
60844;SDS011;47984;51.250;6.712;2022-07-24T08:02:41;6.22;;;4.93;;
60844;SDS011;47984;51.250;6.712;2022-07-24T08:05:08;5.20;;;4.68;;
60844;SDS011;47984;51.250;6.712;2022-07-24T08:07:35;5.22;;;4.72;;
60844;SDS011;47984;51.250;6.712;2022-07-24T08:10:04;6.60;;;4.40;;
60844;SDS011;47984;51.250;6.712;2022-07-24T08:12:36;5.18;;;4.53;;
60844;SDS011;47984;51.250;6.712;2022-07-24T08:15:05;4.78;;;4.38;;
60844;SDS011;47984;51.250;6.712;2022-07-24T08:17:33;5.15;;;4.60;;
60844;SDS011;47984;51.250;6.712;2022-07-24T08:20:00;4.82;;;4.28;;
60844;SDS011;47984;51.250;6.712;2022-07-24T08:22:27;4.82;;;4.43;;
60844;SDS011;47984;51.250;6.712;2022-07-24T08:24:54;6.20;;;4.75;;
60844;SDS011;47984;51.250;6.712;2022-07-24T08:27:21;6.35;;;4.78;;
60844;SDS011;47984;51.250;6.712;2022-07-24T08:29:49;11.50;;;5.13;;
60844;SDS011;47984;51.250;6.712;2022-07-24T08:32:16;4.65;;;4.25;;
60844;SDS011;47984;51.250;6.712;2022-07-24T08:34:43;5.38;;;4.68;;
60844;SDS011;47984;51.250;6.712;2022-07-24T08:37:10;4.43;;;4.03;;
60844;SDS011;47984;51.250;6.712;2022-07-24T08:39:39;5.97;;;5.18;;
60844;SDS011;47984;51.250;6.712;2022-07-24T08:42:07;6.63;;;5.35;;
60844;SDS011;47984;51.250;6.712;2022-07-24T08:44:35;6.90;;;5.65;;
60844;SDS011;47984;51.250;6.712;2022-07-24T08:47:02;5.65;;;4.97;;
60844;SDS011;47984;51.250;6.712;2022-07-24T08:49:30;5.05;;;4.63;;
60844;SDS011;47984;51.250;6.712;2022-07-24T08:51:59;5.72;;;4.82;;
60844;SDS011;47984;51.250;6.712;2022-07-24T08:54:31;5.65;;;4.95;;
60844;SDS011;47984;51.250;6.712;2022-07-24T08:56:59;5.78;;;5.28;;
60844;SDS011;47984;51.250;6.712;2022-07-24T08:59:26;7.13;;;5.80;;
60844;SDS011;47984;51.250;6.712;2022-07-24T09:01:53;5.72;;;4.97;;
60844;SDS011;47984;51.250;6.712;2022-07-24T09:07:25;6.28;;;5.35;;
60844;SDS011;47984;51.250;6.712;2022-07-24T09:10:09;5.75;;;5.25;;
60844;SDS011;47984;51.250;6.712;2022-07-24T09:12:43;5.10;;;4.60;;
60844;SDS011;47984;51.250;6.712;2022-07-24T09:15:18;6.40;;;5.28;;
60844;SDS011;47984;51.250;6.712;2022-07-24T09:17:50;7.80;;;5.80;;
60844;SDS011;47984;51.250;6.712;2022-07-24T09:20:26;5.85;;;5.25;;
60844;SDS011;47984;51.250;6.712;2022-07-24T09:22:57;5.13;;;4.72;;
60844;SDS011;47984;51.250;6.712;2022-07-24T09:25:32;6.35;;;5.18;;
60844;SDS011;47984;51.250;6.712;2022-07-24T09:28:01;6.20;;;5.10;;
60844;SDS011;47984;51.250;6.712;2022-07-24T09:30:34;7.40;;;5.32;;
60844;SDS011;47984;51.250;6.712;2022-07-24T09:38:23;5.60;;;4.88;;
60844;SDS011;47984;51.250;6.712;2022-07-24T09:40:55;4.80;;;4.40;;
60844;SDS011;47984;51.250;6.712;2022-07-24T09:43:25;4.85;;;4.38;;
60844;SDS011;47984;51.250;6.712;2022-07-24T09:46:07;5.13;;;4.60;;
60844;SDS011;47984;51.250;6.712;2022-07-24T09:48:37;5.00;;;4.50;;
60844;SDS011;47984;51.250;6.712;2022-07-24T09:51:20;4.22;;;3.92;;
60844;SDS011;47984;51.250;6.712;2022-07-24T09:53:52;5.05;;;4.25;;
60844;SDS011;47984;51.250;6.712;2022-07-24T09:56:22;9.02;;;4.50;;
60844;SDS011;47984;51.250;6.712;2022-07-24T09:58:51;5.47;;;4.93;;
60844;SDS011;47984;51.250;6.712;2022-07-24T10:01:24;4.50;;;4.10;;
60844;SDS011;47984;51.250;6.712;2022-07-24T10:03:53;4.88;;;4.20;;
60844;SDS011;47984;51.250;6.712;2022-07-24T10:06:26;4.60;;;4.15;;
60844;SDS011;47984;51.250;6.712;2022-07-24T10:08:54;4.38;;;3.92;;
60844;SDS011;47984;51.250;6.712;2022-07-24T10:11:22;5.15;;;4.25;;
60844;SDS011;47984;51.250;6.712;2022-07-24T10:13:50;4.57;;;4.25;;
60844;SDS011;47984;51.250;6.712;2022-07-24T10:16:22;4.78;;;4.38;;
60844;SDS011;47984;51.250;6.712;2022-07-24T10:27:02;4.57;;;4.18;;
60844;SDS011;47984;51.250;6.712;2022-07-24T10:29:33;4.10;;;3.75;;
60844;SDS011;47984;51.250;6.712;2022-07-24T10:32:02;4.30;;;3.90;;
60844;SDS011;47984;51.250;6.712;2022-07-24T10:34:38;5.40;;;4.38;;
60844;SDS011;47984;51.250;6.712;2022-07-24T10:37:23;4.25;;;3.83;;
60844;SDS011;47984;51.250;6.712;2022-07-24T10:45:40;4.50;;;4.10;;
60844;SDS011;47984;51.250;6.712;2022-07-24T11:01:34;5.43;;;3.33;;
60844;SDS011;47984;51.250;6.712;2022-07-24T11:06:53;5.63;;;4.07;;
60844;SDS011;47984;51.250;6.712;2022-07-24T11:09:24;5.28;;;3.42;;
60844;SDS011;47984;51.250;6.712;2022-07-24T11:20:10;4.00;;;3.60;;
60844;SDS011;47984;51.250;6.712;2022-07-24T11:25:24;4.05;;;3.42;;
60844;SDS011;47984;51.250;6.712;2022-07-24T11:30:26;3.92;;;3.58;;
60844;SDS011;47984;51.250;6.712;2022-07-24T11:32:57;3.80;;;3.25;;
60844;SDS011;47984;51.250;6.712;2022-07-24T11:35:32;3.38;;;3.08;;
60844;SDS011;47984;51.250;6.712;2022-07-24T11:38:03;3.38;;;3.08;;
60844;SDS011;47984;51.250;6.712;2022-07-24T11:40:34;3.60;;;3.30;;
60844;SDS011;47984;51.250;6.712;2022-07-24T11:43:04;3.55;;;3.25;;
60844;SDS011;47984;51.250;6.712;2022-07-24T11:45:37;3.38;;;3.17;;
60844;SDS011;47984;51.250;6.712;2022-07-24T11:48:06;3.40;;;3.17;;
60844;SDS011;47984;51.250;6.712;2022-07-24T11:50:44;3.95;;;3.45;;
60844;SDS011;47984;51.250;6.712;2022-07-24T11:53:11;4.07;;;2.95;;
60844;SDS011;47984;51.250;6.712;2022-07-24T11:55:38;3.50;;;3.20;;
60844;SDS011;47984;51.250;6.712;2022-07-24T11:58:05;5.80;;;3.10;;
60844;SDS011;47984;51.250;6.712;2022-07-24T12:00:53;3.20;;;3.00;;
60844;SDS011;47984;51.250;6.712;2022-07-24T12:03:20;3.25;;;2.90;;
60844;SDS011;47984;51.250;6.712;2022-07-24T12:05:50;3.15;;;2.95;;
60844;SDS011;47984;51.250;6.712;2022-07-24T12:08:21;2.80;;;2.60;;
60844;SDS011;47984;51.250;6.712;2022-07-24T12:10:57;3.95;;;2.92;;
60844;SDS011;47984;51.250;6.712;2022-07-24T12:15:56;2.30;;;2.20;;
60844;SDS011;47984;51.250;6.712;2022-07-24T12:18:25;2.92;;;2.60;;
60844;SDS011;47984;51.250;6.712;2022-07-24T12:20:59;2.88;;;2.67;;
60844;SDS011;47984;51.250;6.712;2022-07-24T12:23:28;5.20;;;3.30;;
60844;SDS011;47984;51.250;6.712;2022-07-24T12:25:56;3.13;;;2.67;;
60844;SDS011;47984;51.250;6.712;2022-07-24T12:28:26;2.45;;;2.10;;
60844;SDS011;47984;51.250;6.712;2022-07-24T12:30:54;6.30;;;5.80;;
60844;SDS011;47984;51.250;6.712;2022-07-24T12:38:28;2.90;;;2.70;;
60844;SDS011;47984;51.250;6.712;2022-07-24T12:41:02;2.97;;;2.78;;
60844;SDS011;47984;51.250;6.712;2022-07-24T12:46:28;2.58;;;2.38;;
60844;SDS011;47984;51.250;6.712;2022-07-24T12:54:23;3.08;;;2.78;;
60844;SDS011;47984;51.250;6.712;2022-07-24T12:56:52;3.45;;;3.22;;
60844;SDS011;47984;51.250;6.712;2022-07-24T12:59:30;2.80;;;2.60;;
60844;SDS011;47984;51.250;6.712;2022-07-24T13:02:09;2.72;;;2.53;;
60844;SDS011;47984;51.250;6.712;2022-07-24T13:07:13;2.63;;;2.42;;
60844;SDS011;47984;51.250;6.712;2022-07-24T13:09:43;3.13;;;2.83;;
60844;SDS011;47984;51.250;6.712;2022-07-24T13:12:11;3.20;;;2.78;;
60844;SDS011;47984;51.250;6.712;2022-07-24T13:14:38;2.90;;;2.70;;
60844;SDS011;47984;51.250;6.712;2022-07-24T13:17:07;2.72;;;2.50;;
60844;SDS011;47984;51.250;6.712;2022-07-24T13:19:38;3.22;;;3.03;;
60844;SDS011;47984;51.250;6.712;2022-07-24T13:22:12;3.00;;;2.75;;
60844;SDS011;47984;51.250;6.712;2022-07-24T13:24:39;3.40;;;3.10;;
60844;SDS011;47984;51.250;6.712;2022-07-24T13:27:08;3.78;;;3.08;;
60844;SDS011;47984;51.250;6.712;2022-07-24T13:29:39;2.88;;;2.67;;
60844;SDS011;47984;51.250;6.712;2022-07-24T13:32:06;3.63;;;3.33;;
60844;SDS011;47984;51.250;6.712;2022-07-24T13:34:33;3.70;;;3.28;;
60844;SDS011;47984;51.250;6.712;2022-07-24T13:37:02;3.88;;;3.05;;
60844;SDS011;47984;51.250;6.712;2022-07-24T13:39:33;3.05;;;2.75;;
60844;SDS011;47984;51.250;6.712;2022-07-24T13:42:03;3.10;;;2.90;;
60844;SDS011;47984;51.250;6.712;2022-07-24T13:44:30;3.67;;;3.38;;
60844;SDS011;47984;51.250;6.712;2022-07-24T13:46:58;3.70;;;3.13;;
60844;SDS011;47984;51.250;6.712;2022-07-24T13:49:26;3.22;;;2.95;;
60844;SDS011;47984;51.250;6.712;2022-07-24T13:51:54;3.10;;;2.90;;
60844;SDS011;47984;51.250;6.712;2022-07-24T13:54:22;3.60;;;3.30;;
60844;SDS011;47984;51.250;6.712;2022-07-24T13:56:49;4.07;;;3.33;;
60844;SDS011;47984;51.250;6.712;2022-07-24T13:59:18;3.35;;;3.05;;
60844;SDS011;47984;51.250;6.712;2022-07-24T14:01:45;3.75;;;3.38;;
60844;SDS011;47984;51.250;6.712;2022-07-24T14:04:12;3.33;;;2.97;;
60844;SDS011;47984;51.250;6.712;2022-07-24T14:06:52;3.40;;;3.10;;
60844;SDS011;47984;51.250;6.712;2022-07-24T14:09:20;3.72;;;3.42;;
60844;SDS011;47984;51.250;6.712;2022-07-24T14:11:48;3.67;;;3.38;;
60844;SDS011;47984;51.250;6.712;2022-07-24T14:14:15;4.32;;;3.17;;
60844;SDS011;47984;51.250;6.712;2022-07-24T14:16:43;3.67;;;3.33;;
60844;SDS011;47984;51.250;6.712;2022-07-24T14:19:10;3.95;;;3.40;;
60844;SDS011;47984;51.250;6.712;2022-07-24T14:21:38;3.55;;;3.25;;
60844;SDS011;47984;51.250;6.712;2022-07-24T14:24:06;5.35;;;3.25;;
60844;SDS011;47984;51.250;6.712;2022-07-24T14:26:41;3.53;;;3.22;;
60844;SDS011;47984;51.250;6.712;2022-07-24T14:29:09;5.20;;;3.58;;
60844;SDS011;47984;51.250;6.712;2022-07-24T14:31:38;3.63;;;3.33;;
60844;SDS011;47984;51.250;6.712;2022-07-24T14:34:06;4.07;;;3.67;;
60844;SDS011;47984;51.250;6.712;2022-07-24T14:36:34;5.60;;;3.60;;
60844;SDS011;47984;51.250;6.712;2022-07-24T14:39:02;3.70;;;3.35;;
60844;SDS011;47984;51.250;6.712;2022-07-24T14:41:31;4.00;;;3.70;;
60844;SDS011;47984;51.250;6.712;2022-07-24T14:43:59;6.38;;;3.72;;
60844;SDS011;47984;51.250;6.712;2022-07-24T14:46:32;4.32;;;3.80;;
60844;SDS011;47984;51.250;6.712;2022-07-24T14:48:59;3.55;;;3.35;;
60844;SDS011;47984;51.250;6.712;2022-07-24T14:51:27;5.15;;;3.45;;
60844;SDS011;47984;51.250;6.712;2022-07-24T14:53:54;4.05;;;3.63;;
60844;SDS011;47984;51.250;6.712;2022-07-24T14:56:21;3.97;;;3.58;;
60844;SDS011;47984;51.250;6.712;2022-07-24T14:58:52;3.95;;;3.65;;
60844;SDS011;47984;51.250;6.712;2022-07-24T15:01:20;3.95;;;3.60;;
60844;SDS011;47984;51.250;6.712;2022-07-24T15:03:48;3.83;;;3.50;;
60844;SDS011;47984;51.250;6.712;2022-07-24T15:06:17;5.70;;;3.90;;
60844;SDS011;47984;51.250;6.712;2022-07-24T15:08:44;4.88;;;3.53;;
60844;SDS011;47984;51.250;6.712;2022-07-24T15:11:12;3.85;;;3.55;;
60844;SDS011;47984;51.250;6.712;2022-07-24T15:13:39;4.05;;;3.75;;
60844;SDS011;47984;51.250;6.712;2022-07-24T15:16:07;5.30;;;3.58;;
60844;SDS011;47984;51.250;6.712;2022-07-24T15:18:35;3.67;;;3.38;;
60844;SDS011;47984;51.250;6.712;2022-07-24T15:21:03;4.40;;;3.92;;
60844;SDS011;47984;51.250;6.712;2022-07-24T15:23:31;3.97;;;3.58;;
60844;SDS011;47984;51.250;6.712;2022-07-24T15:26:00;5.18;;;4.03;;
60844;SDS011;47984;51.250;6.712;2022-07-24T15:28:27;4.13;;;3.65;;
60844;SDS011;47984;51.250;6.712;2022-07-24T15:30:54;6.45;;;3.75;;
60844;SDS011;47984;51.250;6.712;2022-07-24T15:33:22;3.72;;;3.42;;
60844;SDS011;47984;51.250;6.712;2022-07-24T15:35:51;4.15;;;3.80;;
60844;SDS011;47984;51.250;6.712;2022-07-24T15:38:18;4.03;;;3.72;;
60844;SDS011;47984;51.250;6.712;2022-07-24T15:40:46;4.00;;;3.70;;
60844;SDS011;47984;51.250;6.712;2022-07-24T15:43:14;4.10;;;3.80;;
60844;SDS011;47984;51.250;6.712;2022-07-24T15:45:43;4.32;;;3.95;;
60844;SDS011;47984;51.250;6.712;2022-07-24T15:48:11;4.30;;;3.80;;
60844;SDS011;47984;51.250;6.712;2022-07-24T15:50:39;4.15;;;3.85;;
60844;SDS011;47984;51.250;6.712;2022-07-24T15:53:06;3.95;;;3.65;;
60844;SDS011;47984;51.250;6.712;2022-07-24T15:55:33;3.63;;;3.33;;
60844;SDS011;47984;51.250;6.712;2022-07-24T15:58:00;3.78;;;3.40;;
60844;SDS011;47984;51.250;6.712;2022-07-24T16:00:28;4.05;;;3.67;;
60844;SDS011;47984;51.250;6.712;2022-07-24T16:02:55;4.18;;;3.80;;
60844;SDS011;47984;51.250;6.712;2022-07-24T16:05:23;4.30;;;3.90;;
60844;SDS011;47984;51.250;6.712;2022-07-24T16:07:50;3.72;;;3.42;;